Time;durP1;ratioP1;P1;durP2;ratioP2;P2;SDS_P1;SDS_P2;PMS_P1;PMS_P2;Temp;Humidity;BMP_temperature;BMP_pressure;BME280_temperature;BME280_humidity;BME280_pressure;Samples;Min_cycle;Max_cycle;Signal;HPM_P1;HPM_P2
2023/08/04 00:00:14;;;;;;;0.63;0.63;;;;;;;;;;5006096;28;20042;-77
2023/08/04 00:02:39;;;;;;;0.80;0.80;;;;;;;;;;5008031;28;20045;-77
2023/08/04 00:05:06;;;;;;;1.92;0.68;;;;;;;;;;5004992;28;20096;-77
2023/08/04 00:07:33;;;;;;;1.40;0.80;;;;;;;;;;5016139;28;20037;-76
2023/08/04 00:09:59;;;;;;;2.00;0.70;;;;;;;;;;5003454;28;20045;-76
2023/08/04 00:12:24;;;;;;;2.08;1.00;;;;;;;;;;5017561;28;20032;-76
2023/08/04 00:14:50;;;;;;;1.33;1.05;;;;;;;;;;5063055;22;20131;-79
2023/08/04 00:17:15;;;;;;;0.90;0.70;;;;;;;;;;5045807;28;20037;-80
2023/08/04 00:19:41;;;;;;;2.72;0.98;;;;;;;;;;5032159;28;20136;-78
2023/08/04 00:22:07;;;;;;;1.60;0.82;;;;;;;;;;5023577;28;20180;-79
2023/08/04 00:24:32;;;;;;;1.45;0.70;;;;;;;;;;5027758;28;20037;-79
2023/08/04 00:27:00;;;;;;;0.98;0.88;;;;;;;;;;5010995;28;20037;-79
2023/08/04 00:29:25;;;;;;;1.05;0.68;;;;;;;;;;5030029;28;20040;-80
2023/08/04 00:31:51;;;;;;;1.13;0.85;;;;;;;;;;5028964;28;20041;-79
2023/08/04 00:34:16;;;;;;;0.60;0.60;;;;;;;;;;5025998;28;20432;-80
2023/08/04 00:36:42;;;;;;;0.93;0.70;;;;;;;;;;5005268;28;20036;-79
2023/08/04 00:39:07;;;;;;;0.65;0.65;;;;;;;;;;5018698;28;20052;-78
2023/08/04 00:41:33;;;;;;;2.05;0.65;;;;;;;;;;5010144;28;20125;-79
2023/08/04 00:43:58;;;;;;;1.58;0.75;;;;;;;;;;5029438;28;20056;-78
2023/08/04 00:46:24;;;;;;;1.58;0.82;;;;;;;;;;5031771;28;20104;-79
2023/08/04 00:48:49;;;;;;;1.73;0.70;;;;;;;;;;5032673;28;20087;-78
2023/08/04 00:51:15;;;;;;;0.80;0.80;;;;;;;;;;5017721;28;20042;-78
2023/08/04 00:53:41;;;;;;;1.02;0.80;;;;;;;;;;5004667;28;20420;-77
2023/08/04 00:56:06;;;;;;;0.90;0.90;;;;;;;;;;5026666;28;20075;-77
2023/08/04 00:58:33;;;;;;;1.73;1.20;;;;;;;;;;5028749;28;20033;-77
2023/08/04 01:00:59;;;;;;;0.60;0.60;;;;;;;;;;5026544;28;20038;-76
2023/08/04 01:03:25;;;;;;;1.40;0.90;;;;;;;;;;5018551;28;20375;-78
2023/08/04 01:06:24;;;;;;;2.53;0.85;;;;;;;;;;5013634;28;20029;-78
2023/08/04 01:09:02;;;;;;;0.70;0.70;;;;;;;;;;5025549;28;20041;-77
2023/08/04 01:11:34;;;;;;;1.38;0.75;;;;;;;;;;5007624;28;20460;-77
2023/08/04 01:14:02;;;;;;;1.95;1.00;;;;;;;;;;5025879;28;20057;-78
2023/08/04 01:16:28;;;;;;;1.88;0.88;;;;;;;;;;4991927;28;20037;-77
2023/08/04 01:18:58;;;;;;;1.10;0.82;;;;;;;;;;5022212;28;20590;-76
2023/08/04 01:21:24;;;;;;;0.80;0.73;;;;;;;;;;5007415;28;20121;-77
2023/08/04 01:23:49;;;;;;;1.25;0.85;;;;;;;;;;5020402;28;20489;-77
2023/08/04 01:26:15;;;;;;;2.45;1.05;;;;;;;;;;5022679;28;20033;-78
2023/08/04 01:28:41;;;;;;;0.85;0.85;;;;;;;;;;5015527;28;20033;-77
2023/08/04 01:31:08;;;;;;;1.60;1.35;;;;;;;;;;5008681;28;20041;-77
2023/08/04 01:33:34;;;;;;;0.90;0.68;;;;;;;;;;5023788;28;20040;-78
2023/08/04 01:36:00;;;;;;;1.35;1.17;;;;;;;;;;5029005;28;20071;-77
2023/08/04 01:38:25;;;;;;;0.70;0.70;;;;;;;;;;5019081;28;20472;-78
2023/08/04 01:40:51;;;;;;;1.73;0.80;;;;;;;;;;5016902;28;20418;-78
2023/08/04 01:43:20;;;;;;;1.17;0.80;;;;;;;;;;5024128;28;20111;-78
2023/08/04 01:45:45;;;;;;;1.45;0.93;;;;;;;;;;5015449;28;20041;-77
2023/08/04 01:48:10;;;;;;;0.80;0.80;;;;;;;;;;5033349;28;20040;-78
2023/08/04 01:50:36;;;;;;;0.95;0.80;;;;;;;;;;5015055;28;20064;-77
2023/08/04 01:53:01;;;;;;;2.10;0.88;;;;;;;;;;5022904;28;20118;-77
2023/08/04 01:55:27;;;;;;;1.13;1.00;;;;;;;;;;5021263;28;20045;-77
2023/08/04 01:57:52;;;;;;;2.50;1.02;;;;;;;;;;5017895;28;20029;-78
2023/08/04 02:00:18;;;;;;;1.08;0.95;;;;;;;;;;5021922;28;20036;-79
2023/08/04 02:02:44;;;;;;;1.80;1.15;;;;;;;;;;5035366;28;20033;-79
2023/08/04 02:05:10;;;;;;;2.33;1.00;;;;;;;;;;5014820;28;20033;-77
2023/08/04 02:07:36;;;;;;;1.95;1.25;;;;;;;;;;5016603;28;20044;-78
2023/08/04 02:10:02;;;;;;;1.10;1.00;;;;;;;;;;5032036;28;20047;-80
2023/08/04 02:12:27;;;;;;;0.82;0.82;;;;;;;;;;5023952;28;20040;-78
2023/08/04 02:14:53;;;;;;;2.47;1.08;;;;;;;;;;5027032;28;20033;-78
2023/08/04 02:17:18;;;;;;;1.15;0.73;;;;;;;;;;5030596;28;20175;-79
2023/08/04 02:19:44;;;;;;;1.20;0.90;;;;;;;;;;5029737;28;20028;-77
2023/08/04 02:22:09;;;;;;;0.70;0.70;;;;;;;;;;5029279;28;20034;-77
2023/08/04 02:24:35;;;;;;;2.50;1.17;;;;;;;;;;5029511;28;20040;-78
2023/08/04 02:27:00;;;;;;;1.05;0.98;;;;;;;;;;5017153;28;20119;-78
2023/08/04 02:29:25;;;;;;;0.73;0.73;;;;;;;;;;5032379;28;20033;-79
2023/08/04 02:31:51;;;;;;;1.17;1.00;;;;;;;;;;5031519;28;20151;-78
2023/08/04 02:34:16;;;;;;;2.65;1.02;;;;;;;;;;5024011;28;20092;-79
2023/08/04 02:36:42;;;;;;;1.17;1.00;;;;;;;;;;5015279;28;20041;-78
2023/08/04 02:39:07;;;;;;;1.27;0.98;;;;;;;;;;4998471;28;20510;-77
2023/08/04 02:41:33;;;;;;;1.10;0.88;;;;;;;;;;5004648;28;20038;-77
2023/08/04 02:44:00;;;;;;;1.65;0.90;;;;;;;;;;5010885;28;20056;-77
2023/08/04 02:46:25;;;;;;;0.70;0.70;;;;;;;;;;5019342;28;20037;-79
2023/08/04 02:48:52;;;;;;;1.20;0.77;;;;;;;;;;5030127;28;20137;-78
2023/08/04 02:51:17;;;;;;;0.75;0.75;;;;;;;;;;5008758;28;20091;-78
2023/08/04 02:53:44;;;;;;;1.05;0.80;;;;;;;;;;5016466;28;20174;-77
2023/08/04 02:56:11;;;;;;;0.77;0.77;;;;;;;;;;4992752;28;20046;-78
2023/08/04 02:58:37;;;;;;;1.25;0.90;;;;;;;;;;5026473;28;20052;-78
2023/08/04 03:01:02;;;;;;;0.75;0.65;;;;;;;;;;5028729;28;20045;-77
2023/08/04 03:03:28;;;;;;;0.68;0.68;;;;;;;;;;5013249;28;20080;-77
2023/08/04 03:05:57;;;;;;;0.70;0.70;;;;;;;;;;5031545;28;20033;-79
2023/08/04 03:08:23;;;;;;;1.20;0.80;;;;;;;;;;5017696;28;20033;-78
2023/08/04 03:10:48;;;;;;;1.20;0.60;;;;;;;;;;5027730;28;20039;-79
2023/08/04 03:13:13;;;;;;;0.90;0.77;;;;;;;;;;5029973;28;20426;-78
2023/08/04 03:15:39;;;;;;;0.88;0.50;;;;;;;;;;5030219;28;20047;-79
2023/08/04 03:18:04;;;;;;;0.60;0.60;;;;;;;;;;5046007;28;20033;-79
2023/08/04 03:20:36;;;;;;;1.42;0.80;;;;;;;;;;5038061;28;20033;-78
2023/08/04 03:23:01;;;;;;;1.73;0.68;;;;;;;;;;5019722;28;20458;-78
2023/08/04 03:25:26;;;;;;;1.70;0.70;;;;;;;;;;5031470;28;20678;-77
2023/08/04 03:27:52;;;;;;;0.73;0.73;;;;;;;;;;5026546;28;20112;-78
2023/08/04 03:30:17;;;;;;;0.60;0.60;;;;;;;;;;5030678;28;20040;-77
2023/08/04 03:32:43;;;;;;;1.02;0.70;;;;;;;;;;5018268;28;20083;-77
2023/08/04 03:35:08;;;;;;;1.95;0.70;;;;;;;;;;5014328;28;20050;-78
2023/08/04 03:37:34;;;;;;;0.93;0.80;;;;;;;;;;5018083;28;21000;-77
2023/08/04 03:39:59;;;;;;;0.80;0.80;;;;;;;;;;5018647;28;20061;-77
2023/08/04 03:42:25;;;;;;;2.63;1.00;;;;;;;;;;5020842;28;20037;-78
2023/08/04 03:44:50;;;;;;;0.60;0.60;;;;;;;;;;5029751;28;20033;-79
2023/08/04 03:47:15;;;;;;;0.70;0.70;;;;;;;;;;5029739;28;20056;-78
2023/08/04 03:49:41;;;;;;;1.48;0.73;;;;;;;;;;5019742;28;20037;-79
2023/08/04 03:52:07;;;;;;;1.58;1.10;;;;;;;;;;5031121;28;20489;-80
2023/08/04 03:54:32;;;;;;;1.05;1.02;;;;;;;;;;5028132;28;20115;-79
2023/08/04 03:56:57;;;;;;;2.05;1.70;;;;;;;;;;5032404;28;20570;-80
2023/08/04 03:59:23;;;;;;;2.88;1.42;;;;;;;;;;5027462;28;20037;-79
2023/08/04 04:01:48;;;;;;;4.93;1.50;;;;;;;;;;5001591;28;20034;-77
2023/08/04 04:04:13;;;;;;;2.42;1.10;;;;;;;;;;5015613;28;20065;-76
2023/08/04 04:06:39;;;;;;;1.63;1.30;;;;;;;;;;5029268;28;20029;-77
2023/08/04 04:09:04;;;;;;;3.30;1.70;;;;;;;;;;5037068;28;20532;-76
2023/08/04 04:11:30;;;;;;;3.65;1.80;;;;;;;;;;5028916;28;20082;-76
2023/08/04 04:13:55;;;;;;;1.92;1.35;;;;;;;;;;5030990;28;20037;-78
2023/08/04 04:16:21;;;;;;;3.10;1.70;;;;;;;;;;5015247;28;20536;-76
2023/08/04 04:18:46;;;;;;;3.10;1.88;;;;;;;;;;5023307;28;20033;-76
2023/08/04 04:21:12;;;;;;;1.00;1.00;;;;;;;;;;5019160;28;20029;-78
2023/08/04 04:23:37;;;;;;;4.22;1.95;;;;;;;;;;5031839;28;20130;-76
2023/08/04 04:26:04;;;;;;;5.40;1.90;;;;;;;;;;5031364;28;20048;-78
2023/08/04 04:28:30;;;;;;;2.35;1.73;;;;;;;;;;5029858;28;20045;-78
2023/08/04 04:31:02;;;;;;;4.88;1.92;;;;;;;;;;5016975;28;20100;-77
2023/08/04 04:33:28;;;;;;;3.28;1.42;;;;;;;;;;5018982;28;20033;-77
2023/08/04 04:35:54;;;;;;;3.28;1.50;;;;;;;;;;5015462;28;20037;-78
2023/08/04 04:38:19;;;;;;;2.17;1.80;;;;;;;;;;5032178;28;20033;-77
2023/08/04 04:40:54;;;;;;;3.05;1.83;;;;;;;;;;5028484;28;20040;-76
2023/08/04 04:43:19;;;;;;;4.40;2.03;;;;;;;;;;5034479;28;20045;-77
2023/08/04 04:45:49;;;;;;;2.45;1.48;;;;;;;;;;5029017;28;20047;-80
2023/08/04 04:48:14;;;;;;;3.88;1.80;;;;;;;;;;5020025;28;20589;-79
2023/08/04 04:50:40;;;;;;;1.90;1.60;;;;;;;;;;5024429;28;20132;-77
2023/08/04 04:53:05;;;;;;;3.25;1.90;;;;;;;;;;5029716;28;20775;-76
2023/08/04 04:55:31;;;;;;;2.55;1.80;;;;;;;;;;5015502;28;20073;-77
2023/08/04 04:57:56;;;;;;;4.50;1.80;;;;;;;;;;5030194;28;20041;-76
2023/08/04 05:00:21;;;;;;;2.55;1.75;;;;;;;;;;5005437;28;20056;-77
2023/08/04 05:02:47;;;;;;;3.67;2.05;;;;;;;;;;5020151;28;20044;-77
2023/08/04 05:05:12;;;;;;;2.90;2.00;;;;;;;;;;5027307;28;20065;-77
2023/08/04 05:07:38;;;;;;;3.88;1.73;;;;;;;;;;5036215;28;20493;-78
2023/08/04 05:10:03;;;;;;;3.38;1.75;;;;;;;;;;5023424;28;20033;-76
2023/08/04 05:12:29;;;;;;;5.15;1.88;;;;;;;;;;5033010;28;20041;-76
2023/08/04 05:14:54;;;;;;;1.88;1.55;;;;;;;;;;5018431;28;20818;-76
2023/08/04 05:17:20;;;;;;;4.03;2.28;;;;;;;;;;5014797;28;20047;-77
2023/08/04 05:19:45;;;;;;;3.55;1.88;;;;;;;;;;5026556;28;20079;-77
2023/08/04 05:22:11;;;;;;;2.83;2.00;;;;;;;;;;5027927;28;20218;-78
2023/08/04 05:24:36;;;;;;;3.03;1.67;;;;;;;;;;5010979;28;20037;-76
2023/08/04 05:27:02;;;;;;;1.70;1.60;;;;;;;;;;5033433;28;20513;-75
2023/08/04 05:29:28;;;;;;;3.17;2.15;;;;;;;;;;5014318;28;20091;-77
2023/08/04 05:31:53;;;;;;;4.75;2.03;;;;;;;;;;5031218;28;20033;-76
2023/08/04 05:34:19;;;;;;;2.58;1.58;;;;;;;;;;5032242;28;20041;-76
2023/08/04 05:36:44;;;;;;;2.20;2.03;;;;;;;;;;5033479;28;20140;-77
2023/08/04 05:39:10;;;;;;;2.55;1.90;;;;;;;;;;5028514;28;20037;-79
2023/08/04 05:41:35;;;;;;;2.72;1.92;;;;;;;;;;5007694;28;20072;-79
2023/08/04 05:44:00;;;;;;;3.47;2.17;;;;;;;;;;5028619;28;20049;-78
2023/08/04 05:46:26;;;;;;;2.95;2.10;;;;;;;;;;5026074;28;20059;-74
2023/08/04 05:48:51;;;;;;;2.47;1.80;;;;;;;;;;5021516;28;20037;-78
2023/08/04 05:51:16;;;;;;;1.50;1.33;;;;;;;;;;5027649;28;20155;-76
2023/08/04 05:53:43;;;;;;;1.30;1.20;;;;;;;;;;5002543;28;20393;-74
2023/08/04 05:56:09;;;;;;;3.00;2.10;;;;;;;;;;5005047;28;20033;-74
2023/08/04 05:58:34;;;;;;;3.83;2.47;;;;;;;;;;5019243;28;20032;-74
2023/08/04 06:00:59;;;;;;;7.25;2.83;;;;;;;;;;5031240;28;20540;-74
2023/08/04 06:03:25;;;;;;;3.47;1.92;;;;;;;;;;5030148;28;20706;-74
2023/08/04 06:05:50;;;;;;;2.53;2.33;;;;;;;;;;5042009;28;20555;-76
2023/08/04 06:08:15;;;;;;;3.47;2.28;;;;;;;;;;5029340;28;20045;-75
2023/08/04 06:10:41;;;;;;;6.50;2.80;;;;;;;;;;5024008;28;20092;-76
2023/08/04 06:13:06;;;;;;;7.13;2.35;;;;;;;;;;5037071;28;20033;-76
2023/08/04 06:15:32;;;;;;;1.55;1.25;;;;;;;;;;5027705;28;20069;-75
2023/08/04 06:17:57;;;;;;;1.90;1.42;;;;;;;;;;5022193;28;20547;-77
2023/08/04 06:20:23;;;;;;;3.15;1.55;;;;;;;;;;5048907;28;20036;-75
2023/08/04 06:22:48;;;;;;;3.85;1.88;;;;;;;;;;5034701;28;20041;-75
2023/08/04 06:25:14;;;;;;;2.35;1.40;;;;;;;;;;5011248;28;20040;-76
2023/08/04 06:27:40;;;;;;;2.70;1.70;;;;;;;;;;5023849;28;20051;-76
2023/08/04 06:30:06;;;;;;;1.80;1.33;;;;;;;;;;5032260;28;20036;-76
2023/08/04 06:32:32;;;;;;;2.92;1.75;;;;;;;;;;5024706;28;20111;-75
2023/08/04 06:34:57;;;;;;;5.32;2.22;;;;;;;;;;5026005;28;20069;-77
2023/08/04 06:37:23;;;;;;;2.80;1.90;;;;;;;;;;5028260;28;20040;-76
2023/08/04 06:39:49;;;;;;;2.40;2.08;;;;;;;;;;5019037;28;20041;-77
2023/08/04 06:42:15;;;;;;;2.25;1.63;;;;;;;;;;5003500;28;20037;-76
2023/08/04 06:44:40;;;;;;;4.68;1.77;;;;;;;;;;5030600;28;20048;-77
2023/08/04 06:47:05;;;;;;;3.08;1.77;;;;;;;;;;5034354;28;20074;-76
2023/08/04 06:49:31;;;;;;;2.00;1.48;;;;;;;;;;5042243;28;20037;-76
2023/08/04 06:51:56;;;;;;;2.10;1.50;;;;;;;;;;5023614;28;20036;-77
2023/08/04 06:54:22;;;;;;;4.43;1.30;;;;;;;;;;5006980;28;20046;-74
2023/08/04 06:56:47;;;;;;;2.85;1.70;;;;;;;;;;5023908;28;20124;-74
2023/08/04 06:59:13;;;;;;;3.92;2.03;;;;;;;;;;5022573;28;20116;-74
2023/08/04 07:01:38;;;;;;;4.63;1.90;;;;;;;;;;5022139;28;20041;-74
2023/08/04 07:04:04;;;;;;;3.63;2.03;;;;;;;;;;5028017;28;20045;-74
2023/08/04 07:06:30;;;;;;;3.85;2.00;;;;;;;;;;5027650;28;20049;-74
2023/08/04 07:08:55;;;;;;;2.78;1.92;;;;;;;;;;5026315;28;20111;-74
2023/08/04 07:11:20;;;;;;;3.38;1.92;;;;;;;;;;5023836;28;20857;-74
2023/08/04 07:13:46;;;;;;;5.10;1.90;;;;;;;;;;5020676;28;20437;-74
2023/08/04 07:16:12;;;;;;;2.72;1.55;;;;;;;;;;5022793;28;20048;-75
2023/08/04 07:18:38;;;;;;;3.85;1.95;;;;;;;;;;5029451;28;20648;-75
2023/08/04 07:21:08;;;;;;;3.08;1.83;;;;;;;;;;5014967;28;20041;-74
2023/08/04 07:23:33;;;;;;;4.27;1.77;;;;;;;;;;5013267;28;20045;-75
2023/08/04 07:25:59;;;;;;;4.20;1.30;;;;;;;;;;5007085;28;20054;-74
2023/08/04 07:28:25;;;;;;;6.32;2.50;;;;;;;;;;5020367;28;20544;-75
2023/08/04 07:30:50;;;;;;;4.60;1.77;;;;;;;;;;5023266;28;20041;-75
2023/08/04 07:33:15;;;;;;;3.20;1.40;;;;;;;;;;5025166;28;20067;-74
2023/08/04 07:35:41;;;;;;;2.28;1.52;;;;;;;;;;5015398;28;20030;-75
2023/08/04 07:38:06;;;;;;;3.55;1.80;;;;;;;;;;5035343;28;20040;-75
2023/08/04 07:40:32;;;;;;;3.83;2.25;;;;;;;;;;5045249;28;20144;-74
2023/08/04 07:42:57;;;;;;;3.42;1.90;;;;;;;;;;5031992;28;20468;-74
2023/08/04 07:45:22;;;;;;;2.33;1.20;;;;;;;;;;5032940;28;20149;-74
2023/08/04 07:47:48;;;;;;;1.25;1.15;;;;;;;;;;5035630;28;20508;-75
2023/08/04 07:50:13;;;;;;;2.50;1.90;;;;;;;;;;5023050;28;20132;-75
2023/08/04 07:52:38;;;;;;;4.22;1.90;;;;;;;;;;5037805;28;20029;-74
2023/08/04 07:55:04;;;;;;;2.42;1.63;;;;;;;;;;5039200;28;20320;-74
2023/08/04 07:57:30;;;;;;;3.17;1.60;;;;;;;;;;5025925;28;20037;-74
2023/08/04 07:59:55;;;;;;;1.85;1.48;;;;;;;;;;5034991;28;20131;-74
2023/08/04 08:02:20;;;;;;;1.88;1.40;;;;;;;;;;5027735;28;20041;-75
2023/08/04 08:04:46;;;;;;;1.92;1.33;;;;;;;;;;5017750;28;20053;-74
2023/08/04 08:07:11;;;;;;;1.90;1.52;;;;;;;;;;5025270;28;20040;-75
2023/08/04 08:09:36;;;;;;;2.80;1.60;;;;;;;;;;5031589;28;20036;-74
2023/08/04 08:12:02;;;;;;;1.85;1.60;;;;;;;;;;5031272;28;20667;-75
2023/08/04 08:14:27;;;;;;;2.97;1.70;;;;;;;;;;5031606;28;20119;-75
2023/08/04 08:16:53;;;;;;;3.97;1.90;;;;;;;;;;5034205;28;20041;-75
2023/08/04 08:19:18;;;;;;;1.98;1.52;;;;;;;;;;5024703;28;20099;-74
2023/08/04 08:21:44;;;;;;;4.00;2.20;;;;;;;;;;5010430;28;20036;-74
2023/08/04 08:24:09;;;;;;;3.38;1.73;;;;;;;;;;5032672;28;20061;-74
2023/08/04 08:26:35;;;;;;;4.03;1.63;;;;;;;;;;5033276;28;20754;-75
2023/08/04 08:29:02;;;;;;;3.08;1.92;;;;;;;;;;5029346;28;20041;-74
2023/08/04 08:31:27;;;;;;;2.78;1.38;;;;;;;;;;5026616;28;20064;-75
2023/08/04 08:33:53;;;;;;;4.40;1.80;;;;;;;;;;5036373;28;20033;-76
2023/08/04 08:36:19;;;;;;;2.38;1.30;;;;;;;;;;5035389;28;21565;-76
2023/08/04 08:38:44;;;;;;;1.70;1.60;;;;;;;;;;5027125;28;20495;-75
2023/08/04 08:41:11;;;;;;;2.88;1.88;;;;;;;;;;5021417;28;20045;-75
2023/08/04 08:43:37;;;;;;;1.92;1.20;;;;;;;;;;5011537;28;20150;-76
2023/08/04 08:46:03;;;;;;;4.13;1.60;;;;;;;;;;5013341;28;20543;-76
2023/08/04 08:48:30;;;;;;;2.05;1.70;;;;;;;;;;5025815;28;21272;-76
2023/08/04 08:51:02;;;;;;;1.38;1.10;;;;;;;;;;5031899;28;20041;-76
2023/08/04 08:53:31;;;;;;;2.28;1.48;;;;;;;;;;5025835;28;20021;-75
2023/08/04 08:55:59;;;;;;;3.05;1.92;;;;;;;;;;5015983;28;20064;-75
2023/08/04 08:58:28;;;;;;;1.17;1.08;;;;;;;;;;5017997;28;20371;-75
2023/08/04 09:00:53;;;;;;;1.45;1.30;;;;;;;;;;5032465;28;20049;-75
2023/08/04 09:03:19;;;;;;;1.50;1.40;;;;;;;;;;5026450;28;20097;-75
2023/08/04 09:05:44;;;;;;;2.38;1.30;;;;;;;;;;5010352;28;21301;-75
2023/08/04 09:08:10;;;;;;;1.77;1.30;;;;;;;;;;5019042;28;20040;-75
2023/08/04 09:10:37;;;;;;;1.85;1.40;;;;;;;;;;5023432;28;20037;-73
2023/08/04 09:13:07;;;;;;;1.05;0.90;;;;;;;;;;5010210;28;20033;-75
2023/08/04 09:15:47;;;;;;;3.17;1.00;;;;;;;;;;5027168;28;20048;-75
2023/08/04 09:18:25;;;;;;;2.90;1.33;;;;;;;;;;5023601;28;20034;-76
2023/08/04 09:21:10;;;;;;;0.80;0.80;;;;;;;;;;5025572;28;20033;-75
2023/08/04 09:23:37;;;;;;;2.75;1.80;;;;;;;;;;4995335;28;20103;-75
2023/08/04 09:26:03;;;;;;;1.42;1.15;;;;;;;;;;5042234;28;20061;-76
2023/08/04 09:28:28;;;;;;;1.20;0.90;;;;;;;;;;5041670;28;20067;-75
2023/08/04 09:31:09;;;;;;;2.85;1.20;;;;;;;;;;5049832;28;20123;-75
2023/08/04 09:33:43;;;;;;;1.48;0.80;;;;;;;;;;5050912;28;20032;-75
2023/08/04 09:36:10;;;;;;;1.85;0.93;;;;;;;;;;5023399;28;20057;-75
2023/08/04 09:38:37;;;;;;;0.93;0.90;;;;;;;;;;5047790;28;20065;-74
2023/08/04 09:41:05;;;;;;;1.65;1.50;;;;;;;;;;5012282;28;20049;-75
2023/08/04 09:43:31;;;;;;;2.78;1.13;;;;;;;;;;5020077;28;20040;-75
2023/08/04 09:46:05;;;;;;;2.78;1.15;;;;;;;;;;5014877;28;20041;-74
2023/08/04 09:48:30;;;;;;;1.25;0.95;;;;;;;;;;5021361;28;20100;-75
2023/08/04 09:51:03;;;;;;;3.78;1.40;;;;;;;;;;5027252;28;20033;-75
2023/08/04 09:53:29;;;;;;;2.03;1.50;;;;;;;;;;5020674;28;20040;-75
2023/08/04 09:55:55;;;;;;;2.35;1.27;;;;;;;;;;5026237;28;20037;-75
2023/08/04 09:58:21;;;;;;;1.85;1.10;;;;;;;;;;5008930;28;20029;-74
2023/08/04 10:00:47;;;;;;;1.90;1.08;;;;;;;;;;4998046;28;20052;-75
2023/08/04 10:03:13;;;;;;;1.38;0.98;;;;;;;;;;4994439;28;20073;-75
2023/08/04 10:05:39;;;;;;;0.93;0.88;;;;;;;;;;5023548;28;20098;-75
2023/08/04 10:08:06;;;;;;;1.13;0.93;;;;;;;;;;5014018;28;20513;-75
2023/08/04 10:10:32;;;;;;;2.17;1.40;;;;;;;;;;5007308;28;20029;-74
2023/08/04 10:12:58;;;;;;;2.92;1.33;;;;;;;;;;5000821;28;20047;-75
2023/08/04 10:15:24;;;;;;;3.75;1.40;;;;;;;;;;5019929;28;20041;-75
2023/08/04 10:17:49;;;;;;;3.03;1.30;;;;;;;;;;5018657;28;20041;-75
2023/08/04 10:20:14;;;;;;;3.72;1.52;;;;;;;;;;5028558;28;20090;-75
2023/08/04 10:22:43;;;;;;;3.47;1.58;;;;;;;;;;5030435;28;20759;-75
2023/08/04 10:25:16;;;;;;;3.55;1.85;;;;;;;;;;5027460;28;20382;-75
2023/08/04 10:27:48;;;;;;;2.65;1.58;;;;;;;;;;5007180;28;20064;-74
2023/08/04 10:30:14;;;;;;;3.97;2.15;;;;;;;;;;5029493;28;20041;-74
2023/08/04 10:32:41;;;;;;;1.85;1.30;;;;;;;;;;5027845;28;20096;-74
2023/08/04 10:35:16;;;;;;;2.40;1.27;;;;;;;;;;5029450;28;20039;-74
2023/08/04 10:37:55;;;;;;;2.10;1.13;;;;;;;;;;5029783;28;20710;-74
2023/08/04 10:40:31;;;;;;;2.35;1.10;;;;;;;;;;5015184;28;20749;-74
2023/08/04 10:43:05;;;;;;;1.20;1.10;;;;;;;;;;5021162;28;20029;-74
2023/08/04 10:45:52;;;;;;;1.08;0.88;;;;;;;;;;5025513;28;20029;-74
2023/08/04 10:48:21;;;;;;;4.00;1.60;;;;;;;;;;5013980;28;20045;-74
2023/08/04 10:50:50;;;;;;;1.35;1.05;;;;;;;;;;5028222;28;20071;-74
2023/08/04 10:53:16;;;;;;;1.27;1.10;;;;;;;;;;5029895;28;20032;-74
2023/08/04 10:55:54;;;;;;;2.10;1.48;;;;;;;;;;5013937;28;20102;-74
2023/08/04 10:58:19;;;;;;;2.22;1.00;;;;;;;;;;5026782;28;20059;-74
2023/08/04 11:00:45;;;;;;;3.47;1.75;;;;;;;;;;5042148;28;20040;-74
2023/08/04 11:03:21;;;;;;;2.20;1.33;;;;;;;;;;5012958;28;20614;-74
2023/08/04 11:05:51;;;;;;;1.75;1.00;;;;;;;;;;5035335;28;20820;-74
2023/08/04 11:08:18;;;;;;;2.42;1.65;;;;;;;;;;5036623;28;20134;-76
2023/08/04 11:10:52;;;;;;;1.48;1.15;;;;;;;;;;5033187;28;20090;-74
2023/08/04 11:13:19;;;;;;;1.40;1.30;;;;;;;;;;5037932;28;20040;-74
2023/08/04 11:15:46;;;;;;;2.45;1.33;;;;;;;;;;5050475;28;20036;-73
2023/08/04 11:18:20;;;;;;;1.38;1.00;;;;;;;;;;5048762;28;20082;-74
2023/08/04 11:20:45;;;;;;;2.50;1.10;;;;;;;;;;5040156;28;20505;-76
2023/08/04 11:23:12;;;;;;;2.88;1.10;;;;;;;;;;5041655;28;20583;-75
2023/08/04 11:25:39;;;;;;;1.45;1.00;;;;;;;;;;5040611;28;20508;-75
2023/08/04 11:28:05;;;;;;;2.53;1.38;;;;;;;;;;5014611;28;20269;-75
2023/08/04 11:30:34;;;;;;;2.38;1.33;;;;;;;;;;5026095;28;20045;-75
2023/08/04 11:33:01;;;;;;;1.40;1.10;;;;;;;;;;5040104;28;20037;-75
2023/08/04 11:35:29;;;;;;;1.58;1.48;;;;;;;;;;5044602;28;20037;-75
2023/08/04 11:37:54;;;;;;;2.05;1.08;;;;;;;;;;5047440;28;20040;-76
2023/08/04 11:40:21;;;;;;;3.47;1.20;;;;;;;;;;5040847;28;20476;-75
2023/08/04 11:42:48;;;;;;;1.70;1.20;;;;;;;;;;5030068;28;20043;-75
2023/08/04 11:45:13;;;;;;;2.65;1.40;;;;;;;;;;5032496;28;20111;-75
2023/08/04 11:47:40;;;;;;;1.80;0.93;;;;;;;;;;5006508;28;20120;-75
2023/08/04 11:50:07;;;;;;;4.20;1.30;;;;;;;;;;5033332;28;20037;-75
2023/08/04 11:52:37;;;;;;;1.42;1.10;;;;;;;;;;5021995;28;20048;-75
2023/08/04 11:55:06;;;;;;;2.72;1.33;;;;;;;;;;4997376;28;20054;-75
2023/08/04 11:57:32;;;;;;;1.10;1.00;;;;;;;;;;5020805;28;20138;-75
2023/08/04 11:59:58;;;;;;;1.98;1.30;;;;;;;;;;5022223;28;20052;-75
2023/08/04 12:02:24;;;;;;;2.63;1.20;;;;;;;;;;5033688;28;20053;-75
2023/08/04 12:05:13;;;;;;;1.85;1.05;;;;;;;;;;5018198;28;20045;-75
2023/08/04 12:07:39;;;;;;;1.30;1.20;;;;;;;;;;5011108;28;20103;-75
2023/08/04 12:10:05;;;;;;;2.05;1.25;;;;;;;;;;5021119;28;20049;-75
2023/08/04 12:12:37;;;;;;;0.95;0.95;;;;;;;;;;5026840;28;20061;-75
2023/08/04 12:15:04;;;;;;;3.30;1.13;;;;;;;;;;5028279;28;20616;-75
2023/08/04 12:17:37;;;;;;;2.17;1.08;;;;;;;;;;5016744;28;20150;-76
2023/08/04 12:20:04;;;;;;;2.50;0.93;;;;;;;;;;4992330;28;20132;-75
2023/08/04 12:22:30;;;;;;;1.40;0.95;;;;;;;;;;5013792;28;20049;-76
2023/08/04 12:24:55;;;;;;;2.30;1.15;;;;;;;;;;5000074;28;20438;-76
2023/08/04 12:27:21;;;;;;;1.92;1.10;;;;;;;;;;5016149;28;20287;-75
2023/08/04 12:29:46;;;;;;;1.40;0.98;;;;;;;;;;5008747;28;20045;-74
2023/08/04 12:32:12;;;;;;;3.10;1.30;;;;;;;;;;4978153;28;20041;-75
2023/08/04 12:34:37;;;;;;;3.90;1.40;;;;;;;;;;5016409;28;20084;-75
2023/08/04 12:37:05;;;;;;;2.42;1.30;;;;;;;;;;5011000;28;20041;-75
2023/08/04 12:39:30;;;;;;;1.23;0.95;;;;;;;;;;5018592;28;20051;-75
2023/08/04 12:41:56;;;;;;;1.73;1.02;;;;;;;;;;5009985;28;20037;-75
2023/08/04 12:44:21;;;;;;;3.03;1.20;;;;;;;;;;5015155;28;20044;-75
2023/08/04 12:46:46;;;;;;;1.73;1.02;;;;;;;;;;4984929;28;20132;-75
2023/08/04 12:49:12;;;;;;;1.30;1.20;;;;;;;;;;5006419;28;20041;-75
2023/08/04 12:51:37;;;;;;;1.13;0.90;;;;;;;;;;4997409;28;20077;-76
2023/08/04 12:54:03;;;;;;;1.45;0.90;;;;;;;;;;5005592;28;20079;-75
2023/08/04 12:56:30;;;;;;;0.98;0.90;;;;;;;;;;4991447;28;20506;-75
2023/08/04 12:58:55;;;;;;;1.35;1.10;;;;;;;;;;5003266;28;20065;-75
2023/08/04 13:01:21;;;;;;;1.48;1.10;;;;;;;;;;4995930;28;20072;-75
2023/08/04 13:03:46;;;;;;;1.15;1.05;;;;;;;;;;5013487;28;20124;-75
2023/08/04 13:06:12;;;;;;;0.75;0.70;;;;;;;;;;5004763;28;20080;-75
2023/08/04 13:08:37;;;;;;;1.20;0.70;;;;;;;;;;5005844;28;20041;-76
2023/08/04 13:11:03;;;;;;;1.30;0.77;;;;;;;;;;5011442;28;20092;-75
2023/08/04 13:13:28;;;;;;;0.82;0.82;;;;;;;;;;5010852;28;20041;-75
2023/08/04 13:15:54;;;;;;;1.58;0.90;;;;;;;;;;4996045;28;20129;-75
2023/08/04 13:18:19;;;;;;;1.42;0.95;;;;;;;;;;5006008;28;20049;-75
2023/08/04 13:20:44;;;;;;;1.77;1.10;;;;;;;;;;5004807;28;20107;-75
2023/08/04 13:23:10;;;;;;;1.20;1.10;;;;;;;;;;5003024;28;20680;-75
2023/08/04 13:25:37;;;;;;;1.23;0.90;;;;;;;;;;5000145;28;20046;-76
2023/08/04 13:28:03;;;;;;;1.48;0.80;;;;;;;;;;5002990;28;20045;-75
2023/08/04 13:30:28;;;;;;;1.45;0.90;;;;;;;;;;4998372;28;20041;-76
2023/08/04 13:32:53;;;;;;;1.50;1.20;;;;;;;;;;5004210;28;20088;-75
2023/08/04 13:35:19;;;;;;;0.90;0.90;;;;;;;;;;5005641;28;20038;-76
2023/08/04 13:37:44;;;;;;;1.15;1.05;;;;;;;;;;4991967;28;20083;-75
2023/08/04 13:40:10;;;;;;;0.98;0.70;;;;;;;;;;4989302;28;20044;-75
2023/08/04 13:42:35;;;;;;;1.42;1.17;;;;;;;;;;5007262;28;20796;-75
2023/08/04 13:45:01;;;;;;;1.58;0.90;;;;;;;;;;4982448;28;20081;-75
2023/08/04 13:47:26;;;;;;;0.90;0.80;;;;;;;;;;5007081;28;20049;-75
2023/08/04 13:49:52;;;;;;;0.82;0.80;;;;;;;;;;5016647;28;20077;-76
2023/08/04 13:52:17;;;;;;;1.25;0.82;;;;;;;;;;5010259;28;20529;-75
2023/08/04 13:54:42;;;;;;;1.13;0.77;;;;;;;;;;4983681;28;20785;-75
2023/08/04 13:57:08;;;;;;;0.80;0.80;;;;;;;;;;5003374;28;20034;-75
2023/08/04 13:59:33;;;;;;;1.23;0.82;;;;;;;;;;4997370;28;20050;-76
2023/08/04 14:01:58;;;;;;;1.20;0.90;;;;;;;;;;5004637;28;20065;-76
2023/08/04 14:04:24;;;;;;;0.70;0.70;;;;;;;;;;5015740;28;20057;-75
2023/08/04 14:06:50;;;;;;;0.93;0.70;;;;;;;;;;5013859;28;20033;-75
2023/08/04 14:09:15;;;;;;;1.20;0.90;;;;;;;;;;5006123;28;20049;-75
2023/08/04 14:11:40;;;;;;;1.05;0.93;;;;;;;;;;5014099;28;20033;-76
2023/08/04 14:14:06;;;;;;;1.20;1.10;;;;;;;;;;5021957;28;20037;-75
2023/08/04 14:16:31;;;;;;;1.35;1.05;;;;;;;;;;5030265;28;20040;-75
2023/08/04 14:18:57;;;;;;;2.08;1.00;;;;;;;;;;5027600;28;20116;-76
2023/08/04 14:21:22;;;;;;;1.23;0.70;;;;;;;;;;5012285;28;20760;-75
2023/08/04 14:23:48;;;;;;;2.60;0.98;;;;;;;;;;4984307;28;20128;-75
2023/08/04 14:26:13;;;;;;;1.77;0.80;;;;;;;;;;4995559;28;20073;-75
2023/08/04 14:28:38;;;;;;;1.88;0.98;;;;;;;;;;5006024;28;20041;-76
2023/08/04 14:31:04;;;;;;;0.80;0.80;;;;;;;;;;5008335;28;20044;-75
2023/08/04 14:33:29;;;;;;;1.88;1.10;;;;;;;;;;5008632;28;20042;-76
2023/08/04 14:35:55;;;;;;;1.10;1.00;;;;;;;;;;5005290;28;20433;-76
2023/08/04 14:38:20;;;;;;;2.38;1.27;;;;;;;;;;4992484;28;20044;-75